sensor_id;sensor_type;location;lat;lon;timestamp;P1;durP1;ratioP1;P2;durP2;ratioP2
43256;SDS011;28860;43.212;27.934;2022-07-29T00:02:58;12.05;;;6.38;;
43256;SDS011;28860;43.212;27.934;2022-07-29T00:05:26;10.38;;;5.45;;
43256;SDS011;28860;43.212;27.934;2022-07-29T00:07:54;22.30;;;5.88;;
43256;SDS011;28860;43.212;27.934;2022-07-29T00:10:20;17.90;;;6.15;;
43256;SDS011;28860;43.212;27.934;2022-07-29T00:12:50;14.77;;;6.28;;
43256;SDS011;28860;43.212;27.934;2022-07-29T00:15:18;10.23;;;5.60;;
43256;SDS011;28860;43.212;27.934;2022-07-29T00:17:48;14.70;;;6.15;;
43256;SDS011;28860;43.212;27.934;2022-07-29T00:20:22;14.02;;;6.10;;
43256;SDS011;28860;43.212;27.934;2022-07-29T00:22:48;16.40;;;5.93;;
43256;SDS011;28860;43.212;27.934;2022-07-29T00:25:17;11.88;;;4.95;;
43256;SDS011;28860;43.212;27.934;2022-07-29T00:27:42;12.68;;;5.93;;
43256;SDS011;28860;43.212;27.934;2022-07-29T00:30:08;15.10;;;5.53;;
43256;SDS011;28860;43.212;27.934;2022-07-29T00:32:40;15.45;;;5.72;;
43256;SDS011;28860;43.212;27.934;2022-07-29T00:35:08;17.65;;;6.28;;
43256;SDS011;28860;43.212;27.934;2022-07-29T00:37:54;11.75;;;5.50;;
43256;SDS011;28860;43.212;27.934;2022-07-29T00:40:26;13.55;;;5.53;;
43256;SDS011;28860;43.212;27.934;2022-07-29T00:42:57;12.98;;;5.63;;
43256;SDS011;28860;43.212;27.934;2022-07-29T00:45:23;12.07;;;5.13;;
43256;SDS011;28860;43.212;27.934;2022-07-29T00:47:52;14.18;;;5.15;;
43256;SDS011;28860;43.212;27.934;2022-07-29T00:50:21;11.25;;;5.38;;
43256;SDS011;28860;43.212;27.934;2022-07-29T00:52:50;9.98;;;4.47;;
43256;SDS011;28860;43.212;27.934;2022-07-29T00:55:17;13.18;;;5.35;;
43256;SDS011;28860;43.212;27.934;2022-07-29T00:57:45;14.00;;;4.63;;
43256;SDS011;28860;43.212;27.934;2022-07-29T01:00:14;10.32;;;4.68;;
43256;SDS011;28860;43.212;27.934;2022-07-29T01:02:44;12.25;;;4.85;;
43256;SDS011;28860;43.212;27.934;2022-07-29T01:05:11;10.02;;;4.93;;
43256;SDS011;28860;43.212;27.934;2022-07-29T01:07:38;17.88;;;5.50;;
43256;SDS011;28860;43.212;27.934;2022-07-29T01:10:07;15.55;;;5.78;;
43256;SDS011;28860;43.212;27.934;2022-07-29T01:12:35;15.07;;;5.60;;
43256;SDS011;28860;43.212;27.934;2022-07-29T01:15:04;23.17;;;5.70;;
43256;SDS011;28860;43.212;27.934;2022-07-29T01:23:40;18.92;;;5.82;;
43256;SDS011;28860;43.212;27.934;2022-07-29T01:31:33;17.40;;;6.45;;
43256;SDS011;28860;43.212;27.934;2022-07-29T01:34:10;17.83;;;6.95;;
43256;SDS011;28860;43.212;27.934;2022-07-29T01:36:54;19.10;;;7.85;;
43256;SDS011;28860;43.212;27.934;2022-07-29T01:39:29;19.05;;;8.13;;
43256;SDS011;28860;43.212;27.934;2022-07-29T01:42:19;21.63;;;8.48;;
43256;SDS011;28860;43.212;27.934;2022-07-29T01:45:15;22.83;;;9.02;;
43256;SDS011;28860;43.212;27.934;2022-07-29T01:48:04;20.45;;;9.00;;
43256;SDS011;28860;43.212;27.934;2022-07-29T01:50:46;32.40;;;9.95;;
43256;SDS011;28860;43.212;27.934;2022-07-29T01:53:38;26.90;;;9.23;;
43256;SDS011;28860;43.212;27.934;2022-07-29T01:56:11;27.42;;;9.68;;
43256;SDS011;28860;43.212;27.934;2022-07-29T01:58:42;25.73;;;9.82;;
43256;SDS011;28860;43.212;27.934;2022-07-29T02:01:11;29.58;;;10.05;;
43256;SDS011;28860;43.212;27.934;2022-07-29T11:23:30;7.23;;;2.60;;
43256;SDS011;28860;43.212;27.934;2022-07-29T11:29:15;6.05;;;2.60;;
43256;SDS011;28860;43.212;27.934;2022-07-29T11:31:49;5.25;;;2.53;;
43256;SDS011;28860;43.212;27.934;2022-07-29T11:39:41;8.75;;;2.80;;
43256;SDS011;28860;43.212;27.934;2022-07-29T11:47:40;30.00;;;3.58;;
43256;SDS011;28860;43.212;27.934;2022-07-29T11:50:17;11.68;;;2.60;;
43256;SDS011;28860;43.212;27.934;2022-07-29T11:52:58;18.20;;;2.75;;
43256;SDS011;28860;43.212;27.934;2022-07-29T11:55:53;11.80;;;2.47;;
43256;SDS011;28860;43.212;27.934;2022-07-29T11:58:23;12.02;;;2.95;;
43256;SDS011;28860;43.212;27.934;2022-07-29T12:04:02;8.05;;;2.35;;
43256;SDS011;28860;43.212;27.934;2022-07-29T12:06:41;9.32;;;2.30;;
43256;SDS011;28860;43.212;27.934;2022-07-29T12:09:08;5.68;;;2.60;;
43256;SDS011;28860;43.212;27.934;2022-07-29T12:11:36;10.25;;;2.80;;
43256;SDS011;28860;43.212;27.934;2022-07-29T12:20:00;7.88;;;2.55;;
43256;SDS011;28860;43.212;27.934;2022-07-29T12:22:37;5.00;;;2.80;;
43256;SDS011;28860;43.212;27.934;2022-07-29T12:25:15;11.45;;;2.70;;
43256;SDS011;28860;43.212;27.934;2022-07-29T12:27:43;10.77;;;3.00;;
43256;SDS011;28860;43.212;27.934;2022-07-29T12:30:12;9.02;;;3.90;;
43256;SDS011;28860;43.212;27.934;2022-07-29T12:33:00;18.60;;;3.55;;
43256;SDS011;28860;43.212;27.934;2022-07-29T12:35:37;9.15;;;4.00;;
43256;SDS011;28860;43.212;27.934;2022-07-29T12:38:33;11.32;;;4.05;;
43256;SDS011;28860;43.212;27.934;2022-07-29T12:41:02;10.35;;;3.60;;
43256;SDS011;28860;43.212;27.934;2022-07-29T12:43:30;9.77;;;3.20;;
43256;SDS011;28860;43.212;27.934;2022-07-29T12:45:56;14.13;;;3.30;;
43256;SDS011;28860;43.212;27.934;2022-07-29T12:51:33;11.52;;;3.33;;
43256;SDS011;28860;43.212;27.934;2022-07-29T12:54:14;11.23;;;2.90;;
43256;SDS011;28860;43.212;27.934;2022-07-29T12:56:42;4.60;;;2.80;;
43256;SDS011;28860;43.212;27.934;2022-07-29T12:59:21;10.77;;;2.70;;
43256;SDS011;28860;43.212;27.934;2022-07-29T13:01:49;9.27;;;2.97;;
43256;SDS011;28860;43.212;27.934;2022-07-29T13:07:25;7.90;;;3.30;;
43256;SDS011;28860;43.212;27.934;2022-07-29T13:13:07;6.97;;;2.95;;
43256;SDS011;28860;43.212;27.934;2022-07-29T13:18:38;5.03;;;2.90;;
43256;SDS011;28860;43.212;27.934;2022-07-29T13:37:31;9.48;;;2.80;;
43256;SDS011;28860;43.212;27.934;2022-07-29T13:40:00;12.90;;;2.80;;
43256;SDS011;28860;43.212;27.934;2022-07-29T13:45:24;7.55;;;2.83;;
43256;SDS011;28860;43.212;27.934;2022-07-29T13:47:52;7.97;;;3.40;;
43256;SDS011;28860;43.212;27.934;2022-07-29T13:50:32;5.97;;;2.80;;
43256;SDS011;28860;43.212;27.934;2022-07-29T13:53:01;11.13;;;2.80;;
43256;SDS011;28860;43.212;27.934;2022-07-29T14:02:02;14.88;;;3.50;;
43256;SDS011;28860;43.212;27.934;2022-07-29T14:04:29;9.15;;;2.83;;
43256;SDS011;28860;43.212;27.934;2022-07-29T14:09:42;9.70;;;3.00;;
43256;SDS011;28860;43.212;27.934;2022-07-29T14:12:14;7.65;;;2.83;;
43256;SDS011;28860;43.212;27.934;2022-07-29T14:17:42;10.50;;;3.10;;
43256;SDS011;28860;43.212;27.934;2022-07-29T14:20:09;6.93;;;2.80;;
43256;SDS011;28860;43.212;27.934;2022-07-29T14:26:01;8.15;;;3.25;;
43256;SDS011;28860;43.212;27.934;2022-07-29T14:28:28;8.50;;;3.60;;
43256;SDS011;28860;43.212;27.934;2022-07-29T14:30:55;12.32;;;3.45;;
43256;SDS011;28860;43.212;27.934;2022-07-29T14:33:35;11.30;;;3.75;;
43256;SDS011;28860;43.212;27.934;2022-07-29T14:36:05;9.68;;;3.65;;
43256;SDS011;28860;43.212;27.934;2022-07-29T14:38:33;10.67;;;3.37;;
43256;SDS011;28860;43.212;27.934;2022-07-29T14:41:00;12.25;;;3.60;;
43256;SDS011;28860;43.212;27.934;2022-07-29T14:43:28;10.48;;;3.70;;
43256;SDS011;28860;43.212;27.934;2022-07-29T14:48:56;8.90;;;3.42;;
43256;SDS011;28860;43.212;27.934;2022-07-29T14:51:22;8.80;;;3.63;;
43256;SDS011;28860;43.212;27.934;2022-07-29T14:54:01;12.73;;;3.90;;
43256;SDS011;28860;43.212;27.934;2022-07-29T14:56:31;11.82;;;4.20;;
43256;SDS011;28860;43.212;27.934;2022-07-29T14:58:57;7.63;;;3.55;;
43256;SDS011;28860;43.212;27.934;2022-07-29T15:01:34;11.57;;;3.78;;
43256;SDS011;28860;43.212;27.934;2022-07-29T15:04:03;12.77;;;4.13;;
43256;SDS011;28860;43.212;27.934;2022-07-29T15:09:34;21.05;;;4.60;;
43256;SDS011;28860;43.212;27.934;2022-07-29T15:12:05;14.77;;;4.35;;
43256;SDS011;28860;43.212;27.934;2022-07-29T15:14:37;13.43;;;4.70;;
43256;SDS011;28860;43.212;27.934;2022-07-29T15:17:13;13.15;;;4.40;;
43256;SDS011;28860;43.212;27.934;2022-07-29T15:23:09;11.27;;;3.80;;
43256;SDS011;28860;43.212;27.934;2022-07-29T15:25:37;13.85;;;4.20;;
43256;SDS011;28860;43.212;27.934;2022-07-29T15:28:05;13.30;;;3.92;;
43256;SDS011;28860;43.212;27.934;2022-07-29T15:30:53;7.63;;;4.15;;
43256;SDS011;28860;43.212;27.934;2022-07-29T15:33:20;7.70;;;4.18;;
43256;SDS011;28860;43.212;27.934;2022-07-29T15:35:51;14.68;;;4.38;;
43256;SDS011;28860;43.212;27.934;2022-07-29T17:28:05;13.30;;;4.70;;
43256;SDS011;28860;43.212;27.934;2022-07-29T17:30:30;12.25;;;4.45;;
43256;SDS011;28860;43.212;27.934;2022-07-29T17:32:57;14.30;;;4.22;;
43256;SDS011;28860;43.212;27.934;2022-07-29T17:35:23;15.10;;;4.63;;
43256;SDS011;28860;43.212;27.934;2022-07-29T17:38:07;12.68;;;4.40;;
43256;SDS011;28860;43.212;27.934;2022-07-29T17:40:33;7.97;;;4.25;;
43256;SDS011;28860;43.212;27.934;2022-07-29T17:43:01;9.02;;;4.50;;
43256;SDS011;28860;43.212;27.934;2022-07-29T17:45:33;14.90;;;4.32;;
43256;SDS011;28860;43.212;27.934;2022-07-29T17:47:59;9.63;;;4.45;;
43256;SDS011;28860;43.212;27.934;2022-07-29T17:50:25;11.57;;;4.50;;
43256;SDS011;28860;43.212;27.934;2022-07-29T17:52:51;13.50;;;4.63;;
43256;SDS011;28860;43.212;27.934;2022-07-29T17:55:17;9.93;;;4.88;;
43256;SDS011;28860;43.212;27.934;2022-07-29T17:57:45;10.80;;;4.85;;
43256;SDS011;28860;43.212;27.934;2022-07-29T18:00:12;20.88;;;4.90;;
43256;SDS011;28860;43.212;27.934;2022-07-29T18:02:41;11.52;;;4.60;;
43256;SDS011;28860;43.212;27.934;2022-07-29T18:05:09;12.68;;;4.65;;
43256;SDS011;28860;43.212;27.934;2022-07-29T18:07:36;11.52;;;4.45;;
43256;SDS011;28860;43.212;27.934;2022-07-29T18:10:07;11.60;;;4.68;;
43256;SDS011;28860;43.212;27.934;2022-07-29T18:12:33;6.75;;;4.22;;
43256;SDS011;28860;43.212;27.934;2022-07-29T18:14:59;10.68;;;5.03;;
43256;SDS011;28860;43.212;27.934;2022-07-29T18:17:25;18.70;;;5.35;;
43256;SDS011;28860;43.212;27.934;2022-07-29T18:19:53;15.07;;;4.90;;
43256;SDS011;28860;43.212;27.934;2022-07-29T18:22:19;12.88;;;4.80;;
43256;SDS011;28860;43.212;27.934;2022-07-29T18:24:46;9.02;;;4.75;;
43256;SDS011;28860;43.212;27.934;2022-07-29T18:27:19;11.75;;;4.72;;
43256;SDS011;28860;43.212;27.934;2022-07-29T18:29:45;14.93;;;4.30;;
43256;SDS011;28860;43.212;27.934;2022-07-29T18:32:11;13.75;;;5.05;;
43256;SDS011;28860;43.212;27.934;2022-07-29T18:34:36;11.73;;;4.80;;
43256;SDS011;28860;43.212;27.934;2022-07-29T18:37:05;7.38;;;4.75;;
43256;SDS011;28860;43.212;27.934;2022-07-29T18:39:31;11.10;;;5.57;;
43256;SDS011;28860;43.212;27.934;2022-07-29T18:41:59;12.07;;;5.47;;
43256;SDS011;28860;43.212;27.934;2022-07-29T18:44:32;11.70;;;5.57;;
43256;SDS011;28860;43.212;27.934;2022-07-29T18:46:58;9.65;;;5.20;;
43256;SDS011;28860;43.212;27.934;2022-07-29T18:49:27;12.00;;;5.18;;
43256;SDS011;28860;43.212;27.934;2022-07-29T18:51:54;14.35;;;5.50;;
43256;SDS011;28860;43.212;27.934;2022-07-29T18:54:21;17.60;;;5.28;;
43256;SDS011;28860;43.212;27.934;2022-07-29T18:56:49;13.02;;;5.35;;
43256;SDS011;28860;43.212;27.934;2022-07-29T18:59:17;12.57;;;5.82;;
43256;SDS011;28860;43.212;27.934;2022-07-29T19:01:48;13.50;;;5.65;;
43256;SDS011;28860;43.212;27.934;2022-07-29T19:04:25;16.38;;;5.72;;
43256;SDS011;28860;43.212;27.934;2022-07-29T19:06:51;10.55;;;5.65;;
43256;SDS011;28860;43.212;27.934;2022-07-29T19:09:17;13.07;;;5.60;;
43256;SDS011;28860;43.212;27.934;2022-07-29T19:11:43;10.23;;;5.78;;
43256;SDS011;28860;43.212;27.934;2022-07-29T19:14:09;17.13;;;6.10;;
43256;SDS011;28860;43.212;27.934;2022-07-29T19:16:39;14.32;;;6.18;;
43256;SDS011;28860;43.212;27.934;2022-07-29T19:19:10;15.13;;;6.28;;
43256;SDS011;28860;43.212;27.934;2022-07-29T19:24:09;16.00;;;6.35;;
43256;SDS011;28860;43.212;27.934;2022-07-29T19:26:36;14.27;;;6.05;;
